DABB/AAE METAR and TAF weather

Enter ICAO airport designator
Station Type Date Time Source
DABB METAR 2018/01/16 09:00 UTC NOAA

DABB 160900Z 22008KT 9999 FEW023 11/08 Q1027


Station Type Date Time Source
DABB Decoded METAR 2018/01/16 09:00 UTC NOAA

Annaba, Algeria (DABB) 36-50N 007-49E 4M
Jan 16, 2018 - 04:00 AM EST / 2018.01.16 0900 UTC
Wind: from the SW (220 degrees) at 9 MPH (8 KT):0
Visibility: greater than 7 mile(s):0
Sky conditions: mostly clear
Temperature: 51 F (11 C)
Dew Point: 46 F (8 C)
Relative Humidity: 81%
Pressure (altimeter): 30.33 in. Hg (1027 hPa)
ob: DABB 160900Z 22008KT 9999 FEW023 11/08 Q1027
cycle: 9

Station Type Date Time Source
DABB TAF 2018/01/16 06:40 UTC NOAA

TAF DABB 160500Z 1606/1706 24006KT 8000 SCT026 PROB30
TEMPO 1606/1609 2000 BR FEW010 PROB40
TEMPO 1606/1610 FEW026TCU
BECMG 1610/1612 27010KT
BECMG 1613/1615 32010KT CAVOK


Example: see airport list